Time;durP1;ratioP1;P1;durP2;ratioP2;P2;SDS_P1;SDS_P2;PMS_P1;PMS_P2;Temp;Humidity;BMP_temperature;BMP_pressure;BME280_temperature;BME280_humidity;BME280_pressure;Samples;Min_cycle;Max_cycle;Signal;HPM_P1;HPM_P2
2022/03/25 00:01:54;;;;;;;26.02;16.73;;;;;;;2.62;61.88;101863.44;4914334;29;20055;-71
2022/03/25 00:04:19;;;;;;;28.38;16.45;;;;;;;2.51;62.23;101851.59;4914748;29;20044;-73
2022/03/25 00:06:45;;;;;;;30.65;18.67;;;;;;;2.47;62.94;101852.28;4915317;29;20048;-71
2022/03/25 00:09:10;;;;;;;33.13;19.45;;;;;;;2.46;62.70;101855.69;4917973;29;20116;-72
2022/03/25 00:11:36;;;;;;;27.98;18.48;;;;;;;2.45;62.12;101853.91;4916922;29;20071;-72
2022/03/25 00:14:01;;;;;;;33.90;18.77;;;;;;;2.38;62.32;101852.75;4918200;29;20690;-71
2022/03/25 00:16:27;;;;;;;33.15;19.33;;;;;;;2.30;63.04;101853.19;4917886;29;20522;-72
2022/03/25 00:18:54;;;;;;;29.42;17.05;;;;;;;2.29;62.93;101852.28;4914942;29;20384;-72
2022/03/25 00:21:19;;;;;;;32.28;18.13;;;;;;;2.22;62.43;101857.13;4918228;29;20078;-72
2022/03/25 00:23:45;;;;;;;32.28;19.83;;;;;;;2.10;62.78;101855.72;4916814;29;20067;-72
2022/03/25 00:26:10;;;;;;;32.28;19.05;;;;;;;2.06;62.67;101858.97;4916776;29;20471;-71
2022/03/25 00:28:37;;;;;;;31.58;19.13;;;;;;;1.99;62.61;101856.88;4918131;29;20526;-72
2022/03/25 00:31:07;;;;;;;35.47;21.50;;;;;;;1.93;63.39;101857.47;4914280;29;20034;-71
2022/03/25 00:33:33;;;;;;;32.90;18.95;;;;;;;1.94;63.83;101854.06;4917340;29;20044;-71
2022/03/25 00:35:59;;;;;;;33.00;20.48;;;;;;;1.91;63.85;101859.13;4918076;29;20487;-71
2022/03/25 00:38:24;;;;;;;32.58;20.25;;;;;;;1.87;63.69;101862.38;4915365;29;20150;-72
2022/03/25 00:40:49;;;;;;;38.63;19.70;;;;;;;1.85;63.98;101857.91;4916386;29;20048;-71
2022/03/25 00:43:15;;;;;;;34.38;18.45;;;;;;;1.77;63.63;101859.22;4916620;29;20036;-72
2022/03/25 00:45:41;;;;;;;30.15;18.13;;;;;;;1.70;64.37;101856.31;4917913;29;20036;-72
2022/03/25 00:48:07;;;;;;;39.80;20.80;;;;;;;1.74;63.83;101863.44;4932440;29;20052;-72
2022/03/25 00:50:33;;;;;;;29.88;16.85;;;;;;;1.79;64.62;101858.50;4915681;29;20028;-71
2022/03/25 00:52:58;;;;;;;28.58;16.80;;;;;;;1.73;63.48;101852.97;4917544;29;20411;-72
2022/03/25 00:55:24;;;;;;;29.73;18.48;;;;;;;1.68;64.24;101847.53;4916519;29;20036;-72
2022/03/25 00:57:49;;;;;;;32.50;18.95;;;;;;;1.69;64.71;101849.31;4917864;29;20470;-71
2022/03/25 01:00:14;;;;;;;30.92;18.02;;;;;;;1.69;64.79;101841.50;4915935;29;20028;-71
2022/03/25 01:02:40;;;;;;;26.35;16.98;;;;;;;1.67;64.29;101847.44;4916116;29;20107;-71
2022/03/25 01:05:06;;;;;;;30.73;17.95;;;;;;;1.63;64.75;101848.13;4916617;29;20372;-72
2022/03/25 01:07:31;;;;;;;30.42;17.25;;;;;;;1.59;65.12;101843.56;4917368;29;20570;-72
2022/03/25 01:09:56;;;;;;;36.63;18.17;;;;;;;1.54;65.08;101848.53;4915897;29;20050;-72
2022/03/25 01:12:21;;;;;;;28.23;17.55;;;;;;;1.51;64.82;101851.84;4923009;29;20068;-72
2022/03/25 01:14:48;;;;;;;27.60;17.88;;;;;;;1.51;65.19;101844.06;4931996;29;20047;-71
2022/03/25 01:17:15;;;;;;;31.83;18.40;;;;;;;1.49;65.79;101836.97;4915849;29;20502;-72
2022/03/25 01:19:41;;;;;;;31.83;18.67;;;;;;;1.42;65.97;101837.50;4914343;29;20103;-70
2022/03/25 01:22:06;;;;;;;41.47;21.30;;;;;;;1.41;65.90;101839.19;4917303;29;20069;-72
2022/03/25 01:24:32;;;;;;;29.35;17.17;;;;;;;1.38;65.92;101836.44;4915762;29;20055;-71
2022/03/25 01:26:59;;;;;;;32.90;18.67;;;;;;;1.36;66.70;101829.34;4917405;29;20119;-72
2022/03/25 01:29:24;;;;;;;28.98;16.83;;;;;;;1.35;66.36;101838.00;4913555;29;20577;-71
2022/03/25 01:31:50;;;;;;;28.95;16.40;;;;;;;1.27;65.83;101830.69;4916041;29;20105;-72
2022/03/25 01:34:16;;;;;;;39.22;21.95;;;;;;;1.12;66.50;101835.06;4915649;29;20490;-71
2022/03/25 01:36:41;;;;;;;33.05;19.52;;;;;;;1.03;67.14;101835.47;4916840;29;20047;-71
2022/03/25 01:39:08;;;;;;;39.45;21.65;;;;;;;0.98;67.98;101831.75;4916225;29;20565;-72
2022/03/25 01:41:33;;;;;;;33.83;19.92;;;;;;;0.94;68.55;101834.09;4916449;29;20040;-71
2022/03/25 01:44:00;;;;;;;32.90;19.60;;;;;;;0.99;68.15;101837.81;4916677;29;20032;-71
2022/03/25 01:46:26;;;;;;;36.97;20.85;;;;;;;1.01;69.38;101828.41;4915580;29;20044;-72
2022/03/25 01:48:52;;;;;;;31.75;18.55;;;;;;;1.01;69.92;101837.09;4916587;29;20043;-72
2022/03/25 01:51:30;;;;;;;30.23;18.50;;;;;;;1.02;69.86;101832.78;4915285;29;20035;-72
2022/03/25 01:54:17;;;;;;;35.38;19.88;;;;;;;1.03;69.61;101832.88;4914930;29;20040;-71
2022/03/25 01:56:42;;;;;;;31.83;18.27;;;;;;;1.06;69.09;101834.75;4913970;29;20119;-71
2022/03/25 01:59:08;;;;;;;31.90;18.38;;;;;;;1.09;69.07;101834.91;4914312;29;20153;-71
2022/03/25 02:01:34;;;;;;;30.02;16.23;;;;;;;1.07;68.74;101831.31;4923381;29;20416;-72
2022/03/25 02:03:59;;;;;;;33.90;19.02;;;;;;;0.94;69.26;101834.97;4914158;29;20039;-72
2022/03/25 02:06:25;;;;;;;29.20;16.52;;;;;;;0.93;68.71;101833.19;4916279;29;20036;-71
2022/03/25 02:08:51;;;;;;;27.90;16.70;;;;;;;0.93;68.61;101837.50;4915902;29;20071;-71
2022/03/25 02:11:18;;;;;;;29.08;16.67;;;;;;;0.91;69.02;101833.94;4912526;29;20063;-72
2022/03/25 02:13:44;;;;;;;30.92;17.02;;;;;;;0.92;69.31;101825.31;4921898;29;20043;-71
2022/03/25 02:16:09;;;;;;;26.42;15.73;;;;;;;0.96;68.54;101837.66;4915033;29;20048;-71
2022/03/25 02:18:35;;;;;;;28.05;16.95;;;;;;;0.93;69.12;101838.41;4913998;29;20411;-72
2022/03/25 02:21:01;;;;;;;30.67;17.70;;;;;;;0.85;68.90;101843.19;4916100;29;20036;-72
2022/03/25 02:23:27;;;;;;;27.77;15.98;;;;;;;0.77;68.78;101836.69;4915132;29;20471;-71
2022/03/25 02:25:54;;;;;;;30.33;16.92;;;;;;;0.70;69.52;101838.84;4920799;29;20036;-71
2022/03/25 02:28:22;;;;;;;29.63;18.05;;;;;;;0.68;69.76;101835.28;4914310;29;20091;-71
2022/03/25 02:30:49;;;;;;;26.13;16.70;;;;;;;0.63;70.01;101842.84;4918853;29;20119;-72
2022/03/25 02:33:15;;;;;;;28.98;17.50;;;;;;;0.59;69.61;101839.16;4915122;29;20119;-71
2022/03/25 02:35:44;;;;;;;33.90;19.02;;;;;;;0.58;69.61;101841.69;4912382;29;20094;-71
2022/03/25 02:38:13;;;;;;;30.02;16.95;;;;;;;0.56;69.89;101845.91;4914509;29;20047;-71
2022/03/25 02:40:39;;;;;;;33.30;19.90;;;;;;;0.55;70.08;101834.63;4911681;29;20028;-71
2022/03/25 02:43:05;;;;;;;29.27;18.45;;;;;;;0.58;69.99;101844.28;4914403;29;20031;-71
2022/03/25 02:45:31;;;;;;;30.25;17.90;;;;;;;0.60;70.42;101847.84;4914615;29;20459;-71
2022/03/25 02:47:59;;;;;;;26.20;16.40;;;;;;;0.61;70.95;101847.06;4912592;29;20038;-71
2022/03/25 02:50:25;;;;;;;28.05;16.48;;;;;;;0.56;70.38;101843.31;4910319;29;20135;-71
2022/03/25 02:52:51;;;;;;;33.42;16.83;;;;;;;0.58;70.89;101844.28;4913939;29;20072;-71
2022/03/25 02:55:17;;;;;;;27.55;16.40;;;;;;;0.59;71.27;101840.88;4913349;29;20511;-71
2022/03/25 02:57:42;;;;;;;27.80;16.55;;;;;;;0.61;70.50;101844.44;4915265;29;20087;-71
2022/03/25 03:00:10;;;;;;;28.77;16.58;;;;;;;0.59;70.29;101846.94;4912395;29;20052;-71
2022/03/25 03:02:36;;;;;;;27.40;16.80;;;;;;;0.56;70.33;101844.19;4914603;29;20513;-71
2022/03/25 03:05:02;;;;;;;31.23;16.73;;;;;;;0.54;70.11;101837.13;4914445;29;20036;-71
2022/03/25 03:07:28;;;;;;;27.35;16.27;;;;;;;0.53;70.75;101846.63;4912456;29;20070;-71
2022/03/25 03:09:54;;;;;;;32.60;17.53;;;;;;;0.52;71.16;101841.31;4915321;29;20059;-71
2022/03/25 03:12:19;;;;;;;27.33;17.13;;;;;;;0.49;71.37;101846.34;4914328;29;20040;-71
2022/03/25 03:14:44;;;;;;;25.17;14.57;;;;;;;0.48;70.53;101844.59;4915460;29;20048;-72
2022/03/25 03:17:11;;;;;;;33.75;17.38;;;;;;;0.46;71.79;101846.19;4914801;29;20036;-71
2022/03/25 03:19:36;;;;;;;33.35;17.65;;;;;;;0.47;71.75;101842.78;4915143;29;20100;-72
2022/03/25 03:22:01;;;;;;;29.42;16.40;;;;;;;0.44;71.00;101839.19;4912061;29;20036;-71
2022/03/25 03:24:27;;;;;;;31.20;16.23;;;;;;;0.44;70.86;101841.78;4913820;29;20115;-71
2022/03/25 03:26:52;;;;;;;27.23;15.95;;;;;;;0.46;71.48;101838.41;4914535;29;20051;-71
2022/03/25 03:29:18;;;;;;;29.25;17.15;;;;;;;0.43;71.23;101852.13;4911735;29;20040;-71
2022/03/25 03:31:43;;;;;;;26.10;16.02;;;;;;;0.39;70.63;101848.47;4913291;29;20055;-71
2022/03/25 03:34:08;;;;;;;27.40;16.15;;;;;;;0.31;70.66;101854.00;4914830;29;20048;-71
2022/03/25 03:36:34;;;;;;;29.47;15.27;;;;;;;0.27;71.34;101860.75;4914879;29;20040;-72
2022/03/25 03:38:59;;;;;;;28.05;16.88;;;;;;;0.24;71.11;101857.97;4913050;29;20062;-71
2022/03/25 03:41:25;;;;;;;32.13;17.67;;;;;;;0.19;71.26;101855.13;4913755;29;20092;-72
2022/03/25 03:43:51;;;;;;;27.98;16.02;;;;;;;0.20;70.78;101853.41;4912946;29;20032;-71
2022/03/25 03:46:16;;;;;;;28.50;16.70;;;;;;;0.15;71.74;101853.13;4913360;29;20039;-71
2022/03/25 03:48:41;;;;;;;31.30;17.90;;;;;;;0.13;70.65;101859.03;4914833;29;20056;-71
2022/03/25 03:51:06;;;;;;;35.30;19.70;;;;;;;0.09;72.27;101857.09;4910256;29;20036;-71
2022/03/25 03:53:32;;;;;;;33.63;17.00;;;;;;;-0.01;72.64;101859.16;4913711;29;20076;-71
2022/03/25 03:55:57;;;;;;;29.77;18.70;;;;;;;-0.04;71.95;101860.69;4912820;29;20036;-71
2022/03/25 03:58:23;;;;;;;33.10;17.63;;;;;;;-0.04;72.14;101865.88;4913332;29;20044;-72
2022/03/25 04:00:49;;;;;;;30.60;17.60;;;;;;;-0.04;71.88;101855.50;4914492;29;20047;-71
2022/03/25 04:03:14;;;;;;;34.27;20.57;;;;;;;-0.04;72.33;101861.56;4911986;29;20040;-71
2022/03/25 04:05:40;;;;;;;39.07;22.23;;;;;;;-0.02;72.97;101861.69;4911515;29;20037;-71
2022/03/25 04:08:07;;;;;;;37.63;21.73;;;;;;;-0.04;72.70;101858.09;4909812;29;20043;-71
2022/03/25 04:10:33;;;;;;;34.83;19.53;;;;;;;-0.02;73.73;101862.56;4913360;29;20032;-71
2022/03/25 04:12:58;;;;;;;36.17;18.77;;;;;;;0.00;73.18;101862.66;4912944;29;20522;-71
2022/03/25 04:15:23;;;;;;;33.47;17.87;;;;;;;-0.05;72.28;101869.28;4913560;29;20071;-71
2022/03/25 04:17:49;;;;;;;39.63;24.20;;;;;;;-0.15;72.34;101867.84;4914552;29;20115;-71
2022/03/25 04:20:15;;;;;;;37.80;22.17;;;;;;;-0.23;73.41;101869.09;4912707;29;20047;-71
2022/03/25 04:22:44;;;;;;;39.43;22.53;;;;;;;-0.26;73.83;101874.13;4912111;29;20040;-71
2022/03/25 04:25:10;;;;;;;49.63;25.30;;;;;;;-0.24;73.09;101877.66;4911351;29;20036;-71
2022/03/25 04:27:56;;;;;;;42.57;24.07;;;;;;;-0.21;74.17;101872.66;4913488;29;20032;-71
2022/03/25 04:30:33;;;;;;;40.40;22.77;;;;;;;-0.18;73.14;101877.13;4911710;29;20131;-71
2022/03/25 04:32:59;;;;;;;34.67;20.83;;;;;;;-0.24;74.57;101875.06;4914094;29;20043;-71
2022/03/25 04:35:25;;;;;;;33.70;19.93;;;;;;;-0.24;74.30;101880.25;4912536;29;20460;-71
2022/03/25 04:37:51;;;;;;;28.57;17.57;;;;;;;-0.30;73.91;101892.88;4913292;29;20399;-71
2022/03/25 04:40:18;;;;;;;32.57;19.20;;;;;;;-0.37;73.93;101882.94;4914311;29;20488;-71
2022/03/25 04:42:45;;;;;;;34.67;20.53;;;;;;;-0.47;74.75;101892.78;4912070;29;20048;-71
2022/03/25 04:45:10;;;;;;;34.57;19.90;;;;;;;-0.49;74.06;101888.31;4914377;29;20032;-73
2022/03/25 04:47:35;;;;;;;38.27;20.60;;;;;;;-0.49;74.31;101891.78;4913814;29;20040;-74
2022/03/25 04:50:02;;;;;;;32.30;18.33;;;;;;;-0.52;74.16;101890.72;4911173;29;20032;-74
2022/03/25 04:52:27;;;;;;;32.83;17.93;;;;;;;-0.58;74.61;101891.22;4914467;29;20036;-74
2022/03/25 04:54:53;;;;;;;35.57;20.33;;;;;;;-0.58;74.29;101893.81;4916667;29;20343;-74
2022/03/25 04:57:18;;;;;;;40.80;23.40;;;;;;;-0.60;74.54;101900.63;4917406;29;20051;-74
2022/03/25 04:59:43;;;;;;;39.43;20.60;;;;;;;-0.56;74.24;101899.09;4917587;29;20123;-74
2022/03/25 05:02:10;;;;;;;33.13;18.13;;;;;;;-0.54;74.06;101897.50;4916366;29;20056;-71
2022/03/25 05:04:35;;;;;;;34.50;19.63;;;;;;;-0.57;75.44;101900.81;4914195;29;20039;-72
2022/03/25 05:07:01;;;;;;;35.67;20.47;;;;;;;-0.53;75.01;101904.47;4916165;29;20044;-72
2022/03/25 05:09:27;;;;;;;34.87;21.10;;;;;;;-0.45;74.75;101904.16;4915114;29;20056;-72
2022/03/25 05:11:53;;;;;;;32.23;20.00;;;;;;;-0.41;74.20;101906.91;4914530;29;20048;-71
2022/03/25 05:14:18;;;;;;;38.87;20.70;;;;;;;-0.44;73.64;101915.41;4917419;29;20051;-73
2022/03/25 05:16:43;;;;;;;33.70;19.70;;;;;;;-0.49;74.34;101917.72;4914811;29;20036;-73
2022/03/25 05:19:09;;;;;;;35.60;20.73;;;;;;;-0.54;73.86;101919.13;4915104;29;20502;-73
2022/03/25 05:21:35;;;;;;;33.90;19.90;;;;;;;-0.49;74.70;101922.03;4910195;29;20552;-72
2022/03/25 05:24:01;;;;;;;39.20;21.03;;;;;;;-0.39;74.71;101920.84;4908391;29;20036;-73
2022/03/25 05:26:26;;;;;;;38.87;21.13;;;;;;;-0.34;73.14;101927.22;4907813;29;20415;-73
2022/03/25 05:28:51;;;;;;;36.07;21.33;;;;;;;-0.41;73.19;101922.50;4911779;29;20731;-73
2022/03/25 05:31:16;;;;;;;39.97;20.10;;;;;;;-0.38;74.19;101925.25;4913679;29;20491;-73
2022/03/25 05:33:42;;;;;;;37.53;20.60;;;;;;;-0.35;73.64;101930.63;4908635;29;20044;-72
2022/03/25 05:36:08;;;;;;;30.03;18.97;;;;;;;-0.30;74.63;101929.22;4911822;29;20039;-72
2022/03/25 05:38:33;;;;;;;30.47;18.73;;;;;;;-0.20;74.09;101935.84;4909250;29;20123;-73
2022/03/25 05:40:59;;;;;;;40.83;21.90;;;;;;;-0.16;74.93;101933.50;4912351;29;20039;-73
2022/03/25 05:43:24;;;;;;;32.33;19.77;;;;;;;-0.08;73.93;101937.47;4915416;29;20036;-72
2022/03/25 05:45:49;;;;;;;38.63;20.00;;;;;;;0.01;74.39;101938.81;4916429;29;20068;-72
2022/03/25 05:48:15;;;;;;;43.20;19.03;;;;;;;0.02;74.07;101943.19;4915190;29;20044;-72
2022/03/25 05:50:40;;;;;;;35.53;19.63;;;;;;;0.07;73.07;101937.47;4909652;29;20066;-72
2022/03/25 05:53:08;;;;;;;31.00;18.13;;;;;;;0.15;73.73;101941.41;4910289;29;20028;-72
2022/03/25 05:55:34;;;;;;;29.60;18.27;;;;;;;0.25;74.10;101950.63;4910340;29;20044;-73
2022/03/25 05:57:59;;;;;;;36.90;20.10;;;;;;;0.25;72.76;101950.63;4914526;29;20032;-73
2022/03/25 06:00:24;;;;;;;29.40;18.57;;;;;;;0.27;73.54;101950.75;4914925;29;20040;-72
2022/03/25 06:02:50;;;;;;;36.57;21.13;;;;;;;0.40;73.20;101951.53;4913906;29;20039;-72
2022/03/25 06:05:15;;;;;;;37.17;20.03;;;;;;;0.56;72.96;101952.41;4916443;29;20107;-72
2022/03/25 06:07:43;;;;;;;39.67;21.33;;;;;;;0.68;72.65;101950.50;4914895;29;20036;-72
2022/03/25 06:10:10;;;;;;;32.40;20.00;;;;;;;0.82;72.68;101946.97;4915895;29;20083;-72
2022/03/25 06:12:36;;;;;;;33.58;21.85;;;;;;;0.95;71.96;101952.88;4916371;29;20068;-72
2022/03/25 06:15:03;;;;;;;34.58;20.67;;;;;;;1.06;71.38;101943.94;4916437;29;20455;-72
2022/03/25 06:17:28;;;;;;;39.83;22.30;;;;;;;1.17;71.59;101950.63;4916314;29;20595;-72
2022/03/25 06:19:54;;;;;;;42.15;27.15;;;;;;;1.29;71.33;101943.50;4916325;29;20119;-72
2022/03/25 06:22:19;;;;;;;38.80;22.88;;;;;;;1.39;72.05;101949.19;4915864;29;20064;-72
2022/03/25 06:24:45;;;;;;;35.83;23.05;;;;;;;1.51;72.25;101955.03;4916435;29;20118;-72
2022/03/25 06:27:10;;;;;;;39.75;23.50;;;;;;;1.61;72.55;101949.53;4916101;29;20042;-72
2022/03/25 06:29:37;;;;;;;40.78;22.92;;;;;;;1.75;71.87;101958.94;4915987;29;20067;-73
2022/03/25 06:32:05;;;;;;;45.20;25.45;;;;;;;1.88;71.65;101952.66;4918036;29;20036;-72
2022/03/25 06:34:30;;;;;;;46.17;26.10;;;;;;;2.02;71.54;101952.47;4916731;29;20547;-72
2022/03/25 06:36:55;;;;;;;48.05;27.73;;;;;;;2.14;72.11;101946.19;4913705;29;20040;-72
2022/03/25 06:39:21;;;;;;;49.25;27.92;;;;;;;2.27;71.81;101947.69;4915729;29;20039;-72
2022/03/25 06:41:46;;;;;;;54.13;30.83;;;;;;;2.37;72.86;101944.75;4915604;29;20043;-72
2022/03/25 06:44:12;;;;;;;50.25;29.63;;;;;;;2.52;72.11;101939.41;4915855;29;20036;-72
2022/03/25 06:46:38;;;;;;;44.85;29.85;;;;;;;2.66;72.18;101942.66;4915853;29;20032;-72
2022/03/25 06:49:04;;;;;;;50.28;30.35;;;;;;;2.82;72.01;101939.09;4918470;29;20036;-72
2022/03/25 06:51:30;;;;;;;53.22;31.88;;;;;;;2.96;72.10;101940.66;4915437;29;20509;-72
2022/03/25 06:53:56;;;;;;;53.10;31.90;;;;;;;3.08;72.21;101945.53;4915724;29;20039;-72
2022/03/25 06:56:21;;;;;;;54.67;34.70;;;;;;;3.21;71.22;101944.41;4915653;29;20036;-72
2022/03/25 06:58:47;;;;;;;59.05;36.00;;;;;;;3.31;72.00;101949.22;4916419;29;20094;-72
2022/03/25 07:01:14;;;;;;;56.60;35.25;;;;;;;3.46;71.39;101946.44;4911715;29;20079;-73
2022/03/25 07:03:40;;;;;;;62.28;37.53;;;;;;;3.57;71.20;101949.53;4914334;29;20479;-72
2022/03/25 07:06:05;;;;;;;60.05;36.38;;;;;;;3.69;71.00;101955.28;4915440;29;20051;-72
2022/03/25 07:08:31;;;;;;;58.17;35.63;;;;;;;3.82;70.46;101952.38;4915271;29;20052;-73
2022/03/25 07:10:59;;;;;;;54.58;35.22;;;;;;;3.87;70.31;101950.84;4915048;29;20547;-73
2022/03/25 07:13:24;;;;;;;57.92;34.60;;;;;;;3.99;69.81;101954.84;4915248;29;20494;-73
2022/03/25 07:15:50;;;;;;;53.42;34.50;;;;;;;4.08;69.25;101953.50;4915220;29;20040;-72
2022/03/25 07:18:16;;;;;;;57.45;34.20;;;;;;;4.24;69.14;101957.66;4915322;29;20043;-73
2022/03/25 07:20:41;;;;;;;52.00;33.40;;;;;;;4.34;68.66;101957.22;4915216;29;20040;-73
2022/03/25 07:23:07;;;;;;;53.00;35.72;;;;;;;4.47;68.45;101965.59;4908009;29;20036;-72
2022/03/25 07:25:32;;;;;;;53.17;34.60;;;;;;;4.58;68.13;101961.69;4913957;29;20048;-73
2022/03/25 07:27:57;;;;;;;49.67;33.67;;;;;;;4.71;67.76;101963.97;4915037;29;20032;-72
2022/03/25 07:30:23;;;;;;;55.75;34.13;;;;;;;4.84;67.93;101963.63;4913834;29;20028;-73
2022/03/25 07:32:48;;;;;;;50.20;34.80;;;;;;;4.99;67.81;101967.72;4914692;29;20036;-72
2022/03/25 07:35:14;;;;;;;50.92;33.08;;;;;;;5.09;66.94;101959.41;4915082;29;20412;-72
2022/03/25 07:37:41;;;;;;;50.33;32.65;;;;;;;5.21;66.47;101970.34;4915327;29;20039;-72
2022/03/25 07:40:11;;;;;;;51.72;30.42;;;;;;;5.35;65.81;101972.59;4914993;29;20028;-72
2022/03/25 07:42:37;;;;;;;50.78;32.50;;;;;;;5.47;65.59;101968.69;4911479;29;20040;-73
2022/03/25 07:45:04;;;;;;;46.45;31.15;;;;;;;5.59;65.11;101970.00;4915073;29;20032;-73
2022/03/25 07:47:32;;;;;;;49.85;32.70;;;;;;;5.71;65.15;101973.06;4919915;29;20115;-73
2022/03/25 07:49:58;;;;;;;44.47;30.85;;;;;;;5.87;64.46;101971.91;4920090;29;20698;-72
2022/03/25 07:52:23;;;;;;;47.05;29.73;;;;;;;5.97;65.14;101981.91;4913490;29;20119;-72
2022/03/25 07:54:50;;;;;;;49.08;32.40;;;;;;;6.11;64.64;101971.94;4910082;29;20028;-73
2022/03/25 07:57:15;;;;;;;49.20;32.38;;;;;;;6.24;64.41;101975.88;4908840;29;20048;-73
2022/03/25 07:59:41;;;;;;;49.78;30.52;;;;;;;6.34;63.73;101977.94;4908097;29;20036;-73
2022/03/25 08:02:06;;;;;;;47.15;31.23;;;;;;;6.49;63.43;101983.72;4910589;29;20043;-73
2022/03/25 08:04:32;;;;;;;47.78;30.38;;;;;;;6.61;62.82;101980.63;4911548;29;20037;-72
2022/03/25 08:06:58;;;;;;;49.20;29.75;;;;;;;6.72;62.39;101991.47;4910482;29;20556;-73
2022/03/25 08:09:23;;;;;;;46.72;30.95;;;;;;;6.84;61.73;101983.09;4936427;23;20039;-72
2022/03/25 08:11:49;;;;;;;49.03;32.40;;;;;;;6.98;62.17;101993.19;4926367;29;20403;-74
2022/03/25 08:14:16;;;;;;;44.63;28.23;;;;;;;7.10;62.05;101994.41;4913802;29;20083;-74
2022/03/25 08:16:45;;;;;;;47.17;31.33;;;;;;;7.22;61.75;101994.81;4913685;29;20040;-74
2022/03/25 08:19:11;;;;;;;52.17;32.38;;;;;;;7.41;61.07;101999.81;4914723;29;20048;-74
2022/03/25 08:21:36;;;;;;;49.20;30.77;;;;;;;7.60;61.00;101995.09;4914432;29;20039;-75
2022/03/25 08:29:29;;;;;;;71.90;41.63;;;;;;;8.14;59.60;102000.13;4914856;29;20462;-75
2022/03/25 08:31:55;;;;;;;50.22;31.50;;;;;;;8.26;59.08;102000.47;4918071;29;20077;-75
2022/03/25 08:34:21;;;;;;;43.65;28.83;;;;;;;8.42;57.93;102003.53;4918367;29;20078;-74
2022/03/25 08:36:48;;;;;;;45.17;28.80;;;;;;;8.53;57.07;102005.56;4918306;29;20059;-75
2022/03/25 08:39:14;;;;;;;46.28;32.95;;;;;;;8.62;56.16;102001.38;4918171;29;20491;-74
2022/03/25 08:41:40;;;;;;;45.38;31.42;;;;;;;8.77;55.84;102007.94;4913921;29;20095;-75
2022/03/25 08:44:06;;;;;;;46.50;27.98;;;;;;;8.89;55.56;102002.09;4918144;29;20040;-75
2022/03/25 08:46:34;;;;;;;50.72;32.67;;;;;;;8.98;54.31;101991.75;4918115;29;20072;-74
2022/03/25 08:48:59;;;;;;;40.38;26.05;;;;;;;9.15;53.36;101997.44;4917972;29;20115;-74
2022/03/25 08:51:24;;;;;;;38.00;25.00;;;;;;;9.33;51.95;101993.47;4917678;29;20043;-74
2022/03/25 08:53:50;;;;;;;39.45;28.05;;;;;;;9.48;51.20;101993.75;4917990;29;20036;-74
2022/03/25 08:56:16;;;;;;;36.47;24.13;;;;;;;9.66;50.78;101999.44;4916685;29;20175;-74
2022/03/25 08:58:41;;;;;;;37.45;25.40;;;;;;;9.78;50.72;102001.44;4917928;29;20122;-74
2022/03/25 09:01:06;;;;;;;38.13;24.80;;;;;;;9.92;49.84;102000.84;4917563;29;20032;-73
2022/03/25 09:03:32;;;;;;;37.17;24.25;;;;;;;10.07;49.22;101995.88;4917810;29;20036;-75
2022/03/25 09:05:57;;;;;;;39.92;24.85;;;;;;;10.24;48.37;101998.81;4917846;29;20122;-75
2022/03/25 09:08:22;;;;;;;33.58;23.90;;;;;;;10.42;48.23;101995.66;4917735;29;20118;-74
2022/03/25 09:10:48;;;;;;;41.60;24.00;;;;;;;10.56;47.97;101990.59;4917373;29;20072;-75
2022/03/25 09:13:14;;;;;;;37.35;23.85;;;;;;;10.69;47.47;101992.63;4917121;29;20051;-75
2022/03/25 09:15:39;;;;;;;33.55;22.88;;;;;;;10.85;46.98;101988.47;4917482;29;20048;-74
2022/03/25 09:18:05;;;;;;;36.67;23.00;;;;;;;11.01;45.89;101992.25;4913804;29;20047;-74
2022/03/25 09:20:30;;;;;;;35.40;22.20;;;;;;;11.12;45.52;101988.88;4915700;29;20048;-74
2022/03/25 09:22:55;;;;;;;31.75;21.02;;;;;;;11.27;45.22;101988.22;4917108;29;20043;-74
2022/03/25 09:25:23;;;;;;;34.00;23.08;;;;;;;11.45;44.50;101991.97;4915798;29;20044;-74
2022/03/25 09:27:48;;;;;;;37.58;23.58;;;;;;;11.57;42.92;101981.56;4913007;29;20578;-75
2022/03/25 09:30:14;;;;;;;33.25;20.83;;;;;;;11.68;43.29;101982.59;4917323;29;20123;-74
2022/03/25 09:32:39;;;;;;;36.28;23.30;;;;;;;11.81;42.03;101986.28;4913259;29;20048;-74
2022/03/25 09:35:11;;;;;;;31.48;21.35;;;;;;;12.04;43.05;101982.16;4903750;29;20111;-75
2022/03/25 09:37:43;;;;;;;35.72;22.52;;;;;;;12.18;42.05;101982.34;4912252;29;20093;-74
2022/03/25 09:40:14;;;;;;;38.90;24.42;;;;;;;12.27;41.30;101977.13;4913752;29;20058;-75
2022/03/25 09:42:41;;;;;;;35.07;23.13;;;;;;;12.39;41.15;101984.31;4913394;29;20593;-74
2022/03/25 09:45:08;;;;;;;33.85;21.13;;;;;;;12.52;41.35;101979.09;4917065;29;20351;-75
2022/03/25 09:47:34;;;;;;;40.78;23.67;;;;;;;12.63;41.21;101977.47;4913638;29;20040;-74
2022/03/25 09:49:59;;;;;;;36.97;23.65;;;;;;;12.79;41.02;101978.47;4917190;29;20062;-75
2022/03/25 09:52:28;;;;;;;39.25;23.98;;;;;;;12.60;39.97;101980.97;4916896;29;20155;-74
2022/03/25 09:54:53;;;;;;;36.08;21.95;;;;;;;12.77;40.22;101977.56;4916188;29;20594;-72
2022/03/25 09:57:19;;;;;;;35.67;22.92;;;;;;;12.92;40.18;101969.75;4917154;29;20054;-75
2022/03/25 09:59:44;;;;;;;32.60;21.90;;;;;;;13.09;39.73;101973.38;4910354;29;20115;-75
2022/03/25 10:02:10;;;;;;;36.38;21.90;;;;;;;13.26;39.44;101975.25;4916483;29;20039;-75
2022/03/25 10:04:45;;;;;;;33.13;21.55;;;;;;;13.42;39.32;101968.31;4916817;29;20134;-75
2022/03/25 10:07:16;;;;;;;36.63;23.25;;;;;;;13.58;38.93;101972.81;4913526;29;20032;-75
2022/03/25 10:09:43;;;;;;;38.28;24.08;;;;;;;13.74;39.86;101979.06;4916388;29;20067;-75
2022/03/25 10:12:23;;;;;;;39.05;22.98;;;;;;;13.79;38.00;101966.69;4913074;29;20115;-74
2022/03/25 10:14:49;;;;;;;34.60;21.33;;;;;;;13.86;37.54;101971.16;4931181;29;20525;-74
2022/03/25 10:17:15;;;;;;;32.88;22.65;;;;;;;13.96;38.44;101969.38;4916467;29;20063;-75
2022/03/25 10:19:48;;;;;;;33.10;23.70;;;;;;;14.11;38.88;101968.53;4911269;29;20488;-75
2022/03/25 10:22:17;;;;;;;42.45;27.27;;;;;;;14.27;38.85;101962.38;4916131;29;20087;-75
2022/03/25 10:24:46;;;;;;;37.75;25.50;;;;;;;14.39;38.21;101970.38;4912155;29;20040;-74
2022/03/25 10:27:12;;;;;;;40.17;27.98;;;;;;;14.48;38.34;101967.69;4910395;29;20090;-75
2022/03/25 10:29:37;;;;;;;40.88;29.67;;;;;;;14.60;38.68;101963.34;4910089;29;20047;-75
2022/03/25 10:32:05;;;;;;;39.30;24.88;;;;;;;14.70;37.29;101965.09;4909756;29;20040;-74
2022/03/25 10:34:31;;;;;;;33.95;24.20;;;;;;;14.76;38.40;101969.53;4909282;29;20032;-75
2022/03/25 10:37:04;;;;;;;36.70;26.63;;;;;;;14.81;37.75;101968.63;4909274;29;20047;-75
2022/03/25 10:39:31;;;;;;;38.38;25.00;;;;;;;14.89;37.35;101964.19;4914611;29;20039;-75
2022/03/25 10:42:02;;;;;;;35.88;23.85;;;;;;;14.94;37.34;101950.91;4915901;29;20044;-75
2022/03/25 10:44:34;;;;;;;31.20;22.10;;;;;;;14.93;36.88;101951.78;4916143;29;20487;-75
2022/03/25 10:46:59;;;;;;;29.95;22.52;;;;;;;15.04;36.76;101962.41;4916025;29;20048;-75
2022/03/25 10:49:24;;;;;;;35.95;22.35;;;;;;;15.03;36.28;101957.97;4930153;29;20051;-74
2022/03/25 10:51:55;;;;;;;35.55;23.40;;;;;;;15.03;36.11;101955.31;4915652;29;20036;-75
2022/03/25 10:54:25;;;;;;;42.63;31.20;;;;;;;15.13;36.52;101959.72;4915954;29;20047;-75
2022/03/25 10:56:56;;;;;;;36.08;24.92;;;;;;;15.24;36.22;101949.94;4925623;29;20051;-75
2022/03/25 10:59:25;;;;;;;39.88;27.45;;;;;;;15.42;36.66;101958.75;4915651;29;20075;-75
2022/03/25 11:01:52;;;;;;;40.10;29.40;;;;;;;15.61;35.98;101955.13;4915504;29;20399;-75
2022/03/25 11:04:17;;;;;;;38.60;24.80;;;;;;;15.73;36.14;101955.09;4915754;29;20051;-75
2022/03/25 11:06:45;;;;;;;35.35;25.65;;;;;;;15.81;35.63;101948.88;4914095;29;20032;-75
2022/03/25 11:09:13;;;;;;;42.22;28.92;;;;;;;15.95;35.55;101944.34;4911860;29;20423;-75
2022/03/25 11:11:40;;;;;;;34.28;25.15;;;;;;;15.99;35.32;101938.13;4906652;29;20047;-75
2022/03/25 11:14:07;;;;;;;36.88;25.75;;;;;;;16.01;35.43;101944.31;4906128;29;20036;-75
2022/03/25 11:16:33;;;;;;;37.80;27.83;;;;;;;16.12;35.57;101939.81;4905928;29;20051;-76